YBR weather

Brandon Municipal Airport
Brandon, Manitoba, Canada

Public forecast

Using degrees Celsius for public forecast. Weather courtesy of forecast.io.

Current aviation weather report (METAR) for Brandon Municipal Airport

Retrieved 2020/04/02 22:00 UTC (14 minutes ago):

CYBR 022200Z 32021G26KT 1SM -SN DRSN VV009 M11/M15 A3019 RMK SN8 /S01/ SLP262

Aviation forecast (TAF) for Brandon Municipal Airport

Retrieved 2020/04/02 18:42 UTC (4 hours ago):

TAF CYBR 021739Z 0218/0306 32017G27KT P6SM -SN OVC050 TEMPO 0218/0302 3SM -SN OVC030 PROB30 0218/0223 11/2SM -SN VV008 FM030200 31015G25KT P6SM FEW030 OVC100 RMK NXT FCST BY 030000Z